Time;durP1;ratioP1;P1;durP2;ratioP2;P2;SDS_P1;SDS_P2;PMS_P1;PMS_P2;Temp;Humidity;BMP_temperature;BMP_pressure;BME280_temperature;BME280_humidity;BME280_pressure;Samples;Min_cycle;Max_cycle;Signal;HPM_P1;HPM_P2
2022/08/04 00:00:16;;;;;;;;;;;;;;;29.19;32.10;100697.41;4989288;28;1007;-40
2022/08/04 00:02:41;;;;;;;;;;;;;;;29.15;32.22;100698.81;5006821;28;1054;-40
2022/08/04 00:05:07;;;;;;;;;;;;;;;29.15;32.39;100695.28;5004491;28;1971;-40
2022/08/04 00:07:35;;;;;;;;;;;;;;;29.11;32.36;100699.41;5006427;28;1165;-40
2022/08/04 00:10:02;;;;;;;;;;;;;;;29.15;31.85;100693.41;5008412;28;1165;-40
2022/08/04 00:12:29;;;;;;;;;;;;;;;29.19;32.09;100699.28;5005711;28;1011;-40
2022/08/04 00:14:54;;;;;;;;;;;;;;;29.16;31.85;100699.66;5005849;28;979;-40
2022/08/04 00:17:20;;;;;;;;;;;;;;;29.13;31.84;100697.38;5008102;28;1023;-41
2022/08/04 00:19:51;;;;;;;;;;;;;;;29.14;31.96;100697.16;5026638;28;875;-40
2022/08/04 00:22:16;;;;;;;;;;;;;;;29.14;32.15;100705.28;5009634;28;1009;-40
2022/08/04 00:24:43;;;;;;;;;;;;;;;29.13;32.28;100708.19;5009930;28;1914;-41
2022/08/04 00:27:08;;;;;;;;;;;;;;;29.15;31.94;100714.22;5017009;28;1018;-40
2022/08/04 00:29:34;;;;;;;;;;;;;;;29.15;31.87;100719.66;5004982;28;1192;-40
2022/08/04 00:31:59;;;;;;;;;;;;;;;29.19;31.97;100718.22;5004509;28;876;-41
2022/08/04 00:34:25;;;;;;;;;;;;;;;29.17;32.17;100721.13;5003400;28;1150;-41
2022/08/04 00:36:50;;;;;;;;;;;;;;;29.11;32.07;100724.66;4999031;28;1018;-40
2022/08/04 00:39:16;;;;;;;;;;;;;;;29.08;32.39;100723.16;5026656;28;1145;-41
2022/08/04 00:42:00;;;;;;;;;;;;;;;29.14;31.59;100729.66;4999056;28;1039;-40
2022/08/04 00:44:25;;;;;;;;;;;;;;;29.06;32.01;100719.78;5007597;28;1957;-40
2022/08/04 00:46:50;;;;;;;;;;;;;;;29.12;31.92;100720.03;5007097;28;1038;-40
2022/08/04 00:49:27;;;;;;;;;;;;;;;29.12;32.06;100725.47;5004157;28;964;-40
2022/08/04 00:52:13;;;;;;;;;;;;;;;29.11;32.29;100723.81;4986824;28;995;-40
2022/08/04 00:54:41;;;;;;;;;;;;;;;29.09;31.90;100724.00;4992658;28;1113;-40
2022/08/04 00:57:09;;;;;;;;;;;;;;;29.06;31.82;100729.81;5010582;28;1019;-40
2022/08/04 00:59:37;;;;;;;;;;;;;;;29.00;31.72;100723.31;5005856;28;1054;-40
2022/08/04 01:02:07;;;;;;;;;;;;;;;29.05;32.18;100725.41;5011244;28;1018;-40
2022/08/04 01:04:36;;;;;;;;;;;;;;;29.06;31.79;100727.91;5026511;28;1901;-40
2022/08/04 01:07:01;;;;;;;;;;;;;;;29.06;31.89;100730.63;4998300;28;926;-41
2022/08/04 01:09:38;;;;;;;;;;;;;;;29.03;31.90;100722.91;5004763;28;1229;-40
2022/08/04 01:12:07;;;;;;;;;;;;;;;29.01;31.90;100730.38;5003927;28;928;-40
2022/08/04 01:14:36;;;;;;;;;;;;;;;29.03;32.07;100722.09;5010291;28;1050;-40
2022/08/04 01:17:28;;;;;;;;;;;;;;;29.08;31.81;100733.13;5006946;28;1124;-41
2022/08/04 01:20:01;;;;;;;;;;;;;;;29.05;31.76;100730.81;5011540;28;1200;-41
2022/08/04 01:22:32;;;;;;;;;;;;;;;29.00;31.80;100734.13;5009099;28;1010;-40
2022/08/04 01:25:07;;;;;;;;;;;;;;;28.99;32.14;100729.75;5018935;28;1976;-40
2022/08/04 01:27:46;;;;;;;;;;;;;;;29.00;31.99;100736.00;5007686;28;1256;-40
2022/08/04 01:30:11;;;;;;;;;;;;;;;28.99;31.85;100732.47;5000766;28;947;-41
2022/08/04 01:32:37;;;;;;;;;;;;;;;29.05;32.03;100723.56;5003224;28;1241;-41
2022/08/04 01:35:20;;;;;;;;;;;;;;;29.01;31.76;100733.09;5000024;28;999;-40
2022/08/04 01:37:49;;;;;;;;;;;;;;;29.06;31.80;100730.63;4999565;28;1217;-40
2022/08/04 01:40:14;;;;;;;;;;;;;;;29.07;32.20;100720.66;4998135;28;1015;-40
2022/08/04 01:42:40;;;;;;;;;;;;;;;29.00;31.93;100720.59;4999543;28;1145;-40
2022/08/04 01:45:06;;;;;;;;;;;;;;;29.05;31.86;100714.56;5006685;28;1910;-40
2022/08/04 01:47:33;;;;;;;;;;;;;;;29.02;31.63;100714.97;5002996;28;1051;-41
2022/08/04 01:50:08;;;;;;;;;;;;;;;29.00;31.75;100719.75;5005103;28;1405;-41
2022/08/04 01:52:34;;;;;;;;;;;;;;;29.02;31.98;100713.13;5010013;28;1026;-40
2022/08/04 01:55:00;;;;;;;;;;;;;;;29.02;32.02;100704.16;5006367;28;807;-41
2022/08/04 01:57:25;;;;;;;;;;;;;;;28.96;32.00;100712.00;5007105;28;994;-40
2022/08/04 01:59:50;;;;;;;;;;;;;;;28.91;31.90;100706.31;4999692;28;1165;-41
2022/08/04 02:02:16;;;;;;;;;;;;;;;28.99;31.81;100699.13;5021220;28;1018;-41
2022/08/04 02:04:42;;;;;;;;;;;;;;;28.95;31.65;100696.78;5001850;28;1977;-40
2022/08/04 02:07:26;;;;;;;;;;;;;;;28.92;31.97;100704.47;5004759;28;967;-40
2022/08/04 02:09:55;;;;;;;;;;;;;;;29.00;31.61;100703.50;5004448;28;1030;-41
2022/08/04 02:12:25;;;;;;;;;;;;;;;28.90;31.61;100701.09;5011265;28;1069;-41
2022/08/04 02:15:02;;;;;;;;;;;;;;;28.96;32.08;100705.75;5022382;28;1049;-41
2022/08/04 02:17:27;;;;;;;;;;;;;;;28.96;31.59;100701.16;5000299;28;1050;-40
2022/08/04 02:19:52;;;;;;;;;;;;;;;28.94;31.46;100692.41;5009770;28;991;-41
2022/08/04 02:22:18;;;;;;;;;;;;;;;28.98;31.85;100692.06;5006636;28;1045;-40
2022/08/04 02:24:48;;;;;;;;;;;;;;;29.01;31.68;100697.88;4985262;28;1902;-41
2022/08/04 02:27:13;;;;;;;;;;;;;;;28.99;31.64;100701.84;5011035;28;1145;-41
2022/08/04 02:29:42;;;;;;;;;;;;;;;28.91;31.84;100697.38;5000452;28;1042;-40
2022/08/04 02:32:14;;;;;;;;;;;;;;;28.99;31.73;100699.97;4996868;28;1154;-41
2022/08/04 02:34:46;;;;;;;;;;;;;;;28.94;31.98;100691.56;5017498;28;1092;-41
2022/08/04 02:37:11;;;;;;;;;;;;;;;28.95;31.92;100690.53;5029414;28;1030;-41
2022/08/04 02:39:37;;;;;;;;;;;;;;;28.94;31.68;100695.13;5030447;28;1112;-40
2022/08/04 02:42:03;;;;;;;;;;;;;;;28.95;31.81;100698.66;5010455;28;1009;-40
2022/08/04 02:44:28;;;;;;;;;;;;;;;28.94;31.99;100707.81;5002040;28;1957;-41
2022/08/04 02:46:54;;;;;;;;;;;;;;;28.99;31.76;100705.38;5002179;28;1039;-41
2022/08/04 02:49:22;;;;;;;;;;;;;;;28.95;31.93;100704.91;5001423;28;1034;-41
2022/08/04 02:51:51;;;;;;;;;;;;;;;28.94;32.03;100702.41;5000036;28;1062;-41
2022/08/04 02:54:17;;;;;;;;;;;;;;;28.92;31.77;100705.31;4999041;28;1026;-40
2022/08/04 02:56:43;;;;;;;;;;;;;;;28.95;32.11;100699.50;5003622;28;879;-41
2022/08/04 02:59:09;;;;;;;;;;;;;;;28.85;31.52;100701.69;5004556;28;967;-41
2022/08/04 03:01:34;;;;;;;;;;;;;;;28.92;31.70;100699.03;4996845;28;1146;-41
2022/08/04 03:04:06;;;;;;;;;;;;;;;28.92;32.14;100702.59;5002451;28;1959;-41
2022/08/04 03:06:37;;;;;;;;;;;;;;;28.94;31.74;100697.84;5004496;28;979;-39
2022/08/04 03:09:11;;;;;;;;;;;;;;;28.89;31.78;100697.59;5010044;28;907;-41
2022/08/04 03:11:49;;;;;;;;;;;;;;;28.58;31.90;100696.91;5023697;28;994;-39
2022/08/04 03:14:14;;;;;;;;;;;;;;;27.83;34.28;100697.97;5008390;28;986;-38
2022/08/04 03:16:42;;;;;;;;;;;;;;;27.70;35.91;100697.78;5001076;28;1173;-38
2022/08/04 03:19:07;;;;;;;;;;;;;;;27.72;34.91;100703.84;5014896;28;1125;-38
2022/08/04 03:21:51;;;;;;;;;;;;;;;27.71;34.65;100705.72;5000258;28;1145;-38
2022/08/04 03:24:19;;;;;;;;;;;;;;;27.76;35.04;100705.13;5002790;28;1934;-39
2022/08/04 03:26:49;;;;;;;;;;;;;;;27.61;34.47;100702.44;4999068;28;1102;-39
2022/08/04 03:29:20;;;;;;;;;;;;;;;27.73;34.31;100705.53;5002210;28;1232;-39
2022/08/04 03:32:04;;;;;;;;;;;;;;;27.54;34.63;100713.16;5008693;28;979;-39
2022/08/04 03:34:39;;;;;;;;;;;;;;;27.60;34.57;100714.25;4996812;28;1149;-39
2022/08/04 03:37:23;;;;;;;;;;;;;;;27.48;36.26;100714.72;4996042;28;1081;-41
2022/08/04 03:40:14;;;;;;;;;;;;;;;27.66;34.43;100710.81;5002001;28;983;-41
2022/08/04 03:42:44;;;;;;;;;;;;;;;27.89;34.44;100719.84;5009943;28;1035;-41
2022/08/04 03:45:18;;;;;;;;;;;;;;;27.67;35.10;100717.91;5001892;28;1910;-41
2022/08/04 03:47:51;;;;;;;;;;;;;;;27.65;35.46;100719.94;5002590;28;1027;-40
2022/08/04 03:50:25;;;;;;;;;;;;;;;27.83;35.53;100719.59;4982057;28;987;-37
2022/08/04 03:53:10;;;;;;;;;;;;;;;27.87;36.19;100717.34;5001895;28;1161;-39
2022/08/04 03:55:35;;;;;;;;;;;;;;;27.75;36.14;100715.13;5012890;28;983;-38
2022/08/04 03:58:03;;;;;;;;;;;;;;;27.77;36.01;100723.03;5010770;28;1262;-39
2022/08/04 04:00:40;;;;;;;;;;;;;;;27.72;35.81;100720.06;5011629;28;1396;-39
2022/08/04 04:03:26;;;;;;;;;;;;;;;27.55;36.19;100717.53;5012331;28;1180;-38
2022/08/04 04:06:10;;;;;;;;;;;;;;;27.59;37.48;100721.53;5011722;28;1971;-39
2022/08/04 04:08:46;;;;;;;;;;;;;;;27.57;36.14;100726.28;5023163;28;1909;-38
2022/08/04 04:11:30;;;;;;;;;;;;;;;27.60;35.46;100728.63;5017846;28;1991;-37
2022/08/04 04:14:03;;;;;;;;;;;;;;;27.45;37.78;100725.91;5006617;28;1998;-38
2022/08/04 04:16:42;;;;;;;;;;;;;;;27.60;38.65;100725.06;5023004;28;2076;-38
2022/08/04 04:19:26;;;;;;;;;;;;;;;27.36;39.82;100730.56;5006103;28;2287;-38
2022/08/04 04:22:09;;;;;;;;;;;;;;;27.49;38.06;100724.50;5012133;28;1997;-38
2022/08/04 04:24:44;;;;;;;;;;;;;;;27.24;36.93;100719.38;5000427;28;1887;-36
2022/08/04 04:27:16;;;;;;;;;;;;;;;27.21;37.28;100727.84;5011815;28;1050;-38
2022/08/04 04:29:51;;;;;;;;;;;;;;;26.98;37.23;100730.56;5005179;28;940;-37
2022/08/04 04:32:23;;;;;;;;;;;;;;;26.69;40.17;100727.63;5016824;28;1010;-38
2022/08/04 04:35:07;;;;;;;;;;;;;;;26.89;38.83;100730.63;5015738;28;1209;-38
2022/08/04 04:37:36;;;;;;;;;;;;;;;26.98;37.40;100728.72;5017389;28;1017;-38
2022/08/04 04:40:05;;;;;;;;;;;;;;;26.97;36.68;100729.75;5032471;28;990;-38
2022/08/04 04:42:37;;;;;;;;;;;;;;;27.19;36.79;100735.31;5006194;28;1116;-38
2022/08/04 04:45:34;;;;;;;;;;;;;;;27.34;36.55;100729.09;5005185;28;1910;-39
2022/08/04 04:48:08;;;;;;;;;;;;;;;27.42;37.21;100729.00;4994950;28;1199;-37
2022/08/04 04:50:34;;;;;;;;;;;;;;;27.47;36.13;100729.28;5017421;28;975;-37
2022/08/04 04:53:10;;;;;;;;;;;;;;;27.53;36.45;100733.09;5015021;28;2039;-37
2022/08/04 04:55:40;;;;;;;;;;;;;;;27.56;37.18;100737.28;5013120;28;1042;-38
2022/08/04 04:58:05;;;;;;;;;;;;;;;27.55;37.33;100733.75;5030870;28;918;-39
2022/08/04 05:00:38;;;;;;;;;;;;;;;27.60;36.66;100731.31;5016385;28;1073;-39
2022/08/04 05:03:22;;;;;;;;;;;;;;;27.38;37.42;100722.28;5032535;28;1117;-39
2022/08/04 05:05:56;;;;;;;;;;;;;;;27.77;37.55;100720.34;5012826;28;1973;-37
2022/08/04 05:08:31;;;;;;;;;;;;;;;27.57;35.85;100726.28;5016111;28;1236;-38
2022/08/04 05:11:19;;;;;;;;;;;;;;;28.03;35.91;100728.97;5015843;28;1285;-40
2022/08/04 05:13:48;;;;;;;;;;;;;;;27.73;36.56;100727.13;5002988;28;1117;-40
2022/08/04 05:16:23;;;;;;;;;;;;;;;27.97;36.40;100744.94;5010419;28;1470;-40
2022/08/04 05:19:08;;;;;;;;;;;;;;;27.81;36.66;100724.34;5030213;28;1002;-39
2022/08/04 05:21:41;;;;;;;;;;;;;;;27.72;36.76;100734.44;5014922;28;874;-40
2022/08/04 05:24:08;;;;;;;;;;;;;;;27.54;38.02;100742.03;5005767;28;1985;-40
2022/08/04 05:26:34;;;;;;;;;;;;;;;28.21;35.82;100740.19;5006653;28;1081;-39
2022/08/04 05:29:01;;;;;;;;;;;;;;;28.37;36.32;100743.75;5027757;28;1098;-39
2022/08/04 05:31:33;;;;;;;;;;;;;;;28.36;36.15;100742.88;5016705;28;1050;-39
2022/08/04 05:34:11;;;;;;;;;;;;;;;28.31;36.44;100742.59;5030770;28;884;-39
2022/08/04 05:36:45;;;;;;;;;;;;;;;28.44;35.71;100741.94;5016036;28;1033;-39
2022/08/04 05:39:18;;;;;;;;;;;;;;;28.38;36.43;100736.47;5015001;28;1134;-38
2022/08/04 05:41:44;;;;;;;;;;;;;;;28.45;36.61;100746.31;5007917;28;1042;-38
2022/08/04 05:44:09;;;;;;;;;;;;;;;28.19;37.71;100739.56;5002471;28;1898;-39
2022/08/04 05:46:34;;;;;;;;;;;;;;;28.39;36.82;100738.13;5003569;28;1129;-47
2022/08/04 05:49:00;;;;;;;;;;;;;;;28.59;36.52;100741.03;5004688;28;889;-45
2022/08/04 05:51:25;;;;;;;;;;;;;;;28.67;36.76;100742.78;5027476;28;1575;-44
2022/08/04 05:53:51;;;;;;;;;;;;;;;28.65;36.60;100744.84;5015506;28;927;-44
2022/08/04 05:56:16;;;;;;;;;;;;;;;28.64;36.38;100738.59;5014360;28;1546;-46
2022/08/04 05:58:41;;;;;;;;;;;;;;;28.72;36.67;100746.59;4996973;28;1443;-44
2022/08/04 06:01:07;;;;;;;;;;;;;;;28.81;37.03;100741.84;5013697;28;1492;-46
2022/08/04 06:03:32;;;;;;;;;;;;;;;28.71;37.26;100755.72;5014677;28;1615;-44
2022/08/04 06:05:57;;;;;;;;;;;;;;;28.93;36.91;100746.75;5015460;28;1945;-44
2022/08/04 06:08:23;;;;;;;;;;;;;;;29.06;36.90;100743.34;5030415;28;1133;-44
2022/08/04 06:10:48;;;;;;;;;;;;;;;28.80;37.35;100745.59;5031065;28;1136;-42
2022/08/04 06:13:14;;;;;;;;;;;;;;;28.96;38.01;100738.25;5027608;28;1121;-43
2022/08/04 06:15:40;;;;;;;;;;;;;;;28.96;37.36;100735.53;5016172;28;1303;-43
2022/08/04 06:18:06;;;;;;;;;;;;;;;29.07;37.19;100736.91;5030185;28;1042;-40
2022/08/04 06:20:32;;;;;;;;;;;;;;;29.13;36.70;100738.81;5013977;28;1207;-45
2022/08/04 06:22:58;;;;;;;;;;;;;;;29.28;37.19;100740.59;5011952;28;1101;-42
2022/08/04 06:25:24;;;;;;;;;;;;;;;29.40;36.68;100736.28;5031194;28;1914;-43
2022/08/04 06:27:49;;;;;;;;;;;;;;;29.42;36.43;100730.66;5031309;28;1164;-43
2022/08/04 06:30:15;;;;;;;;;;;;;;;29.28;36.89;100732.47;5016261;28;1121;-43
2022/08/04 06:32:47;;;;;;;;;;;;;;;29.59;36.05;100728.50;5031218;28;1144;-43
2022/08/04 06:35:14;;;;;;;;;;;;;;;29.39;36.53;100722.94;5014253;28;814;-42
2022/08/04 06:37:39;;;;;;;;;;;;;;;29.50;36.58;100726.94;5029758;28;1156;-43
2022/08/04 06:40:05;;;;;;;;;;;;;;;29.46;36.51;100727.34;5038009;28;1191;-42
2022/08/04 06:42:30;;;;;;;;;;;;;;;29.58;36.41;100724.06;5028839;28;1220;-44
2022/08/04 06:44:56;;;;;;;;;;;;;;;29.40;36.68;100716.47;5014173;28;2124;-46
2022/08/04 06:47:22;;;;;;;;;;;;;;;29.46;36.98;100729.25;5026501;28;1695;-48
2022/08/04 06:49:48;;;;;;;;;;;;;;;29.39;37.25;100720.22;5014431;28;1243;-45
2022/08/04 06:52:16;;;;;;;;;;;;;;;29.54;37.50;100722.81;5015795;28;1117;-43
2022/08/04 06:54:44;;;;;;;;;;;;;;;29.47;37.52;100733.63;5014867;28;1057;-44
2022/08/04 06:57:10;;;;;;;;;;;;;;;29.52;37.30;100728.44;5026435;28;1731;-46
2022/08/04 06:59:35;;;;;;;;;;;;;;;29.56;37.17;100726.97;5011586;28;1921;-44
2022/08/04 07:02:01;;;;;;;;;;;;;;;29.59;37.64;100728.50;5013443;28;1188;-46
2022/08/04 07:04:26;;;;;;;;;;;;;;;29.34;38.15;100724.34;5028924;28;1963;-49
2022/08/04 07:06:51;;;;;;;;;;;;;;;29.47;37.47;100722.78;5014739;28;1287;-48
2022/08/04 07:09:16;;;;;;;;;;;;;;;29.38;37.94;100732.94;5028614;28;1192;-47
2022/08/04 07:11:42;;;;;;;;;;;;;;;29.55;37.24;100722.63;5029598;28;1033;-42
2022/08/04 07:14:07;;;;;;;;;;;;;;;29.08;34.80;100733.13;5011436;28;1485;-44
2022/08/04 07:16:32;;;;;;;;;;;;;;;29.18;34.04;100719.25;5030123;28;1021;-43
2022/08/04 07:18:58;;;;;;;;;;;;;;;29.18;35.46;100717.38;5026564;28;1279;-42
2022/08/04 07:21:23;;;;;;;;;;;;;;;29.53;35.43;100721.97;5013759;28;1200;-44
2022/08/04 07:23:49;;;;;;;;;;;;;;;29.59;35.66;100720.38;5000161;28;1995;-44
2022/08/04 07:26:16;;;;;;;;;;;;;;;29.68;36.28;100726.44;5014718;28;1078;-43
2022/08/04 07:28:41;;;;;;;;;;;;;;;29.55;36.37;100717.19;5015107;28;1120;-44
2022/08/04 07:31:08;;;;;;;;;;;;;;;29.73;35.87;100718.53;5014271;28;1967;-44
2022/08/04 07:33:33;;;;;;;;;;;;;;;29.75;36.60;100719.19;5012453;28;1444;-43
2022/08/04 07:35:59;;;;;;;;;;;;;;;29.77;36.89;100725.25;5014645;28;1158;-43
2022/08/04 07:38:24;;;;;;;;;;;;;;;30.10;36.47;100726.41;5017515;28;1169;-44
2022/08/04 07:40:50;;;;;;;;;;;;;;;30.18;36.25;100723.50;5025713;28;1097;-42
2022/08/04 07:43:15;;;;;;;;;;;;;;;30.28;35.85;100720.44;5014454;28;1228;-42
2022/08/04 07:45:41;;;;;;;;;;;;;;;30.22;35.52;100712.28;5014160;28;1975;-46
2022/08/04 07:48:08;;;;;;;;;;;;;;;30.15;35.28;100704.09;5007377;28;1225;-42
2022/08/04 07:50:33;;;;;;;;;;;;;;;30.07;35.55;100715.97;5023506;28;1228;-45
2022/08/04 07:52:58;;;;;;;;;;;;;;;30.25;35.79;100715.41;4996881;28;1248;-43
2022/08/04 07:55:24;;;;;;;;;;;;;;;30.33;35.55;100717.09;5014735;28;1212;-43
2022/08/04 07:57:49;;;;;;;;;;;;;;;30.21;35.58;100716.03;5017062;28;1176;-42
2022/08/04 08:00:14;;;;;;;;;;;;;;;30.23;35.21;100719.38;5018804;28;2080;-42
2022/08/04 08:02:42;;;;;;;;;;;;;;;30.21;35.65;100711.44;5017390;28;1106;-43
2022/08/04 08:05:09;;;;;;;;;;;;;;;29.82;33.99;100709.22;5025120;28;1965;-42
2022/08/04 08:07:34;;;;;;;;;;;;;;;29.99;34.08;100716.16;5012167;28;1562;-42
2022/08/04 08:09:59;;;;;;;;;;;;;;;30.13;34.67;100714.31;5017835;28;1238;-45
2022/08/04 08:12:25;;;;;;;;;;;;;;;30.33;35.00;100708.94;5033135;28;1129;-43
2022/08/04 08:14:50;;;;;;;;;;;;;;;30.02;34.59;100708.44;5018219;28;1176;-45
2022/08/04 08:17:16;;;;;;;;;;;;;;;30.26;34.20;100705.41;5033696;28;1204;-42
2022/08/04 08:19:42;;;;;;;;;;;;;;;30.35;34.11;100706.88;5017261;28;1205;-42
2022/08/04 08:22:09;;;;;;;;;;;;;;;30.31;34.79;100708.34;5016602;28;1148;-43
2022/08/04 08:24:34;;;;;;;;;;;;;;;30.40;34.39;100707.09;5031831;28;1915;-43
2022/08/04 08:27:00;;;;;;;;;;;;;;;30.37;34.45;100720.22;5037316;28;1049;-41
2022/08/04 08:29:25;;;;;;;;;;;;;;;30.19;34.80;100691.78;5037849;28;1167;-45
2022/08/04 08:31:50;;;;;;;;;;;;;;;30.45;34.82;100719.22;5014887;28;1057;-43
2022/08/04 08:34:16;;;;;;;;;;;;;;;30.37;35.03;100714.81;5020246;28;1121;-45
2022/08/04 08:36:45;;;;;;;;;;;;;;;30.47;34.64;100715.25;5017564;28;1101;-44
2022/08/04 08:39:16;;;;;;;;;;;;;;;30.43;34.86;100712.09;5017360;28;1168;-45
2022/08/04 08:41:59;;;;;;;;;;;;;;;30.48;34.81;100716.91;5019870;28;880;-43
2022/08/04 08:44:24;;;;;;;;;;;;;;;30.65;34.61;100713.78;5032106;28;1966;-43
2022/08/04 08:47:08;;;;;;;;;;;;;;;30.73;34.49;100705.44;5012109;28;1180;-44
2022/08/04 08:49:49;;;;;;;;;;;;;;;30.58;34.48;100724.63;5036917;28;1105;-43
2022/08/04 08:52:30;;;;;;;;;;;;;;;30.67;34.41;100720.69;5018677;28;1183;-43
2022/08/04 08:55:01;;;;;;;;;;;;;;;30.71;34.23;100715.69;5017206;28;1101;-46
2022/08/04 08:57:36;;;;;;;;;;;;;;;30.71;34.52;100720.28;5016331;28;1141;-46
2022/08/04 09:00:07;;;;;;;;;;;;;;;30.69;34.27;100709.63;5030430;28;1189;-45
2022/08/04 09:02:33;;;;;;;;;;;;;;;30.68;34.31;100708.78;5017793;28;1121;-46
2022/08/04 09:05:04;;;;;;;;;;;;;;;30.70;34.02;100708.56;5017878;28;1977;-44
2022/08/04 09:07:52;;;;;;;;;;;;;;;29.41;32.52;100702.72;5016965;28;1161;-46
2022/08/04 09:10:25;;;;;;;;;;;;;;;29.92;33.28;100691.72;5017192;28;1067;-45
2022/08/04 09:13:05;;;;;;;;;;;;;;;30.25;33.04;100688.28;5016115;28;1129;-44
2022/08/04 09:15:35;;;;;;;;;;;;;;;30.34;32.58;100683.50;5031952;28;1136;-44
2022/08/04 09:18:09;;;;;;;;;;;;;;;30.49;32.79;100687.91;5017362;28;1118;-44
2022/08/04 09:20:46;;;;;;;;;;;;;;;30.53;32.85;100691.88;5032453;28;1129;-45
2022/08/04 09:23:30;;;;;;;;;;;;;;;30.53;33.06;100676.41;4997636;28;1165;-46
2022/08/04 09:25:58;;;;;;;;;;;;;;;30.60;32.95;100681.00;5016401;28;1906;-46
2022/08/04 09:28:24;;;;;;;;;;;;;;;30.62;32.69;100676.19;5017176;28;1140;-44
2022/08/04 09:31:04;;;;;;;;;;;;;;;30.66;32.80;100682.91;5019911;28;1378;-48
2022/08/04 09:33:34;;;;;;;;;;;;;;;30.62;32.75;100685.19;5007756;28;1128;-45
2022/08/04 09:36:02;;;;;;;;;;;;;;;30.65;32.91;100686.63;5030971;28;975;-45
2022/08/04 09:38:27;;;;;;;;;;;;;;;30.54;32.84;100672.66;5007733;28;1007;-44
2022/08/04 09:41:18;;;;;;;;;;;;;;;30.45;33.34;100671.19;5005074;28;1090;-43
2022/08/04 09:43:52;;;;;;;;;;;;;;;30.51;33.36;100674.97;4999011;28;1898;-42
2022/08/04 09:46:18;;;;;;;;;;;;;;;30.47;33.64;100685.38;5003439;28;1110;-44
2022/08/04 09:48:47;;;;;;;;;;;;;;;30.43;34.25;100676.81;5016468;28;1160;-44
2022/08/04 09:51:20;;;;;;;;;;;;;;;30.43;34.55;100678.69;5016535;28;1089;-43
2022/08/04 09:53:58;;;;;;;;;;;;;;;30.48;34.71;100675.38;5028782;28;1152;-43
2022/08/04 09:56:26;;;;;;;;;;;;;;;30.46;34.71;100675.59;4986076;28;1058;-44
2022/08/04 09:59:06;;;;;;;;;;;;;;;30.48;34.80;100675.38;5031737;28;1129;-43
2022/08/04 10:01:32;;;;;;;;;;;;;;;30.43;34.92;100675.97;5024904;28;1556;-43
2022/08/04 10:04:04;;;;;;;;;;;;;;;30.43;34.96;100673.25;5017084;28;1882;-42
2022/08/04 10:06:48;;;;;;;;;;;;;;;30.50;35.10;100663.25;5023030;28;1085;-42
2022/08/04 10:09:26;;;;;;;;;;;;;;;30.43;35.13;100674.09;5021430;28;1172;-41
2022/08/04 10:12:10;;;;;;;;;;;;;;;30.36;35.02;100670.56;5002048;28;902;-42
2022/08/04 10:14:37;;;;;;;;;;;;;;;30.37;35.31;100664.09;5036253;28;1509;-41
2022/08/04 10:17:03;;;;;;;;;;;;;;;30.40;35.08;100670.97;5019123;28;1206;-43
2022/08/04 10:19:30;;;;;;;;;;;;;;;30.34;35.31;100669.09;5036751;28;1175;-42
2022/08/04 10:22:07;;;;;;;;;;;;;;;30.53;35.15;100675.59;5010969;28;1170;-41
2022/08/04 10:24:47;;;;;;;;;;;;;;;30.42;35.12;100671.59;5027080;28;1907;-40
2022/08/04 10:27:19;;;;;;;;;;;;;;;30.47;35.09;100674.53;5014096;28;1955;-41
2022/08/04 10:29:45;;;;;;;;;;;;;;;30.49;35.30;100677.03;5004474;28;1102;-41
2022/08/04 10:32:19;;;;;;;;;;;;;;;30.54;35.64;100675.38;5014431;28;1620;-43
2022/08/04 10:34:55;;;;;;;;;;;;;;;26.60;43.19;100667.47;5031056;28;1179;-44
2022/08/04 10:37:25;;;;;;;;;;;;;;;23.70;47.61;100673.19;5013682;28;1185;-44
2022/08/04 10:43:13;;;;;;;;;;;;;;;22.26;51.45;100658.91;5016020;28;1106;-43
2022/08/04 10:45:43;;;;;;;;;;;;;;;22.24;52.01;100654.69;5011563;28;1918;-44
2022/08/04 10:48:27;;;;;;;;;;;;;;;22.18;52.34;100661.50;4997637;28;1627;-42
2022/08/04 10:50:58;;;;;;;;;;;;;;;22.09;52.50;100652.53;5020972;28;891;-43
2022/08/04 10:53:24;;;;;;;;;;;;;;;22.02;52.71;100649.63;5031191;28;1133;-45
2022/08/04 10:55:51;;;;;;;;;;;;;;;21.88;53.03;100648.31;5030896;28;1168;-43
2022/08/04 10:58:19;;;;;;;;;;;;;;;21.79;53.60;100651.88;5011073;28;1218;-45
2022/08/04 11:00:44;;;;;;;;;;;;;;;21.76;53.88;100649.47;5030592;28;859;-43
2022/08/04 11:03:16;;;;;;;;;;;;;;;21.81;54.16;100643.69;5030051;28;1538;-43
2022/08/04 11:05:44;;;;;;;;;;;;;;;21.73;54.19;100631.88;5007711;28;1969;-44
2022/08/04 11:08:16;;;;;;;;;;;;;;;21.74;54.82;100636.22;5016577;28;1090;-46
2022/08/04 11:10:46;;;;;;;;;;;;;;;21.73;55.21;100634.53;5014996;28;1172;-46
2022/08/04 11:13:12;;;;;;;;;;;;;;;21.65;55.51;100637.13;5011728;28;1200;-49
2022/08/04 11:15:38;;;;;;;;;;;;;;;21.62;56.14;100640.09;5031563;28;1262;-43
2022/08/04 11:18:14;;;;;;;;;;;;;;;21.50;56.08;100644.81;5030916;28;1117;-44
2022/08/04 11:20:45;;;;;;;;;;;;;;;21.54;56.21;100648.84;5031906;28;1133;-45
2022/08/04 11:23:10;;;;;;;;;;;;;;;21.50;56.95;100645.63;5026978;28;1121;-44
2022/08/04 11:25:42;;;;;;;;;;;;;;;21.46;56.57;100648.75;5000684;28;1963;-44
2022/08/04 11:28:10;;;;;;;;;;;;;;;21.40;56.87;100655.53;5000054;28;1223;-47
2022/08/04 11:30:41;;;;;;;;;;;;;;;21.40;56.62;100659.03;4999535;28;1133;-42
2022/08/04 11:33:20;;;;;;;;;;;;;;;21.24;56.61;100656.16;5000351;28;1138;-43
2022/08/04 11:35:57;;;;;;;;;;;;;;;21.23;56.94;100652.66;5009088;28;1133;-47
2022/08/04 11:38:28;;;;;;;;;;;;;;;21.16;57.42;100660.41;5019095;28;1137;-44
2022/08/04 11:40:56;;;;;;;;;;;;;;;21.24;57.85;100648.97;5019832;28;1177;-45
2022/08/04 11:43:24;;;;;;;;;;;;;;;21.28;58.46;100641.50;5034877;28;1132;-45
2022/08/04 11:45:54;;;;;;;;;;;;;;;21.34;58.56;100640.06;5035106;28;1910;-46
2022/08/04 11:48:22;;;;;;;;;;;;;;;21.34;59.29;100640.91;5018804;28;1211;-50
2022/08/04 11:50:55;;;;;;;;;;;;;;;21.44;58.83;100632.84;5014306;28;949;-39
2022/08/04 11:53:21;;;;;;;;;;;;;;;21.42;59.44;100624.09;5018341;28;1070;-39
2022/08/04 11:55:48;;;;;;;;;;;;;;;21.36;59.33;100630.91;5001885;28;1082;-39
2022/08/04 11:58:14;;;;;;;;;;;;;;;21.41;58.88;100646.53;5019373;28;814;-40
2022/08/04 12:00:41;;;;;;;;;;;;;;;21.35;58.76;100656.00;5005440;28;1185;-37
2022/08/04 12:03:21;;;;;;;;;;;;;;;21.33;58.32;100649.94;4998929;28;814;-40
2022/08/04 12:05:50;;;;;;;;;;;;;;;21.24;58.96;100648.13;4999639;28;1973;-40
2022/08/04 12:08:18;;;;;;;;;;;;;;;21.37;58.60;100650.50;4999590;28;773;-39
2022/08/04 12:10:56;;;;;;;;;;;;;;;21.25;58.72;100649.81;5012879;28;1333;-39
2022/08/04 12:13:27;;;;;;;;;;;;;;;21.29;58.52;100648.53;5008641;28;990;-42
2022/08/04 12:15:55;;;;;;;;;;;;;;;21.13;58.57;100633.09;5001763;28;1355;-39
2022/08/04 12:18:20;;;;;;;;;;;;;;;21.11;58.67;100646.63;5019017;28;830;-39
2022/08/04 12:20:50;;;;;;;;;;;;;;;21.22;58.80;100637.56;5019257;28;748;-38
2022/08/04 12:23:23;;;;;;;;;;;;;;;21.23;58.76;100646.44;5001110;28;867;-39
2022/08/04 12:25:49;;;;;;;;;;;;;;;21.11;59.43;100646.63;5018170;28;1913;-40
2022/08/04 12:28:22;;;;;;;;;;;;;;;21.11;59.30;100651.97;5019299;28;817;-38
2022/08/04 12:30:55;;;;;;;;;;;;;;;21.14;59.49;100654.34;5019832;28;843;-40
2022/08/04 12:33:26;;;;;;;;;;;;;;;21.17;59.31;100642.50;5019059;28;797;-40
2022/08/04 12:35:59;;;;;;;;;;;;;;;21.17;59.75;100634.47;5017599;28;913;-39
2022/08/04 12:38:25;;;;;;;;;;;;;;;21.13;59.25;100639.31;5017293;28;1113;-38
2022/08/04 12:40:51;;;;;;;;;;;;;;;21.30;58.41;100636.84;5017327;28;1058;-40
2022/08/04 12:43:18;;;;;;;;;;;;;;;21.13;59.32;100625.06;5000872;28;1232;-40
2022/08/04 12:45:52;;;;;;;;;;;;;;;21.02;58.96;100631.47;5000918;28;1961;-40
2022/08/04 12:48:18;;;;;;;;;;;;;;;20.90;59.50;100641.44;4999405;28;1450;-39
2022/08/04 12:50:47;;;;;;;;;;;;;;;20.89;59.55;100640.59;4999900;28;1235;-40
2022/08/04 12:53:12;;;;;;;;;;;;;;;20.94;59.65;100634.00;5015430;28;1153;-40
2022/08/04 12:55:38;;;;;;;;;;;;;;;21.01;59.89;100632.41;5000816;28;1196;-40
2022/08/04 12:58:10;;;;;;;;;;;;;;;21.01;59.93;100637.78;5017827;28;1037;-39
2022/08/04 13:00:35;;;;;;;;;;;;;;;20.98;60.13;100635.38;4999902;28;1248;-40
2022/08/04 13:03:05;;;;;;;;;;;;;;;21.07;60.32;100639.03;5000675;28;1197;-39
2022/08/04 13:05:30;;;;;;;;;;;;;;;21.08;60.38;100646.91;5000670;28;1963;-39